createdAt,value
2018-04-28T00:00:18.817Z,70.34
2018-04-28T00:00:50.046Z,70.49
2018-04-28T00:01:21.312Z,70.62
2018-04-28T00:01:52.570Z,70.73
2018-04-28T00:02:23.784Z,70.56
2018-04-28T00:02:55.064Z,70.43
2018-04-28T00:03:26.292Z,70.25
2018-04-28T00:03:57.517Z,70.29
2018-04-28T00:04:28.726Z,70.42
2018-04-28T00:04:59.940Z,70.46
2018-04-28T00:05:31.144Z,70.29
2018-04-28T00:06:02.353Z,70.21
2018-04-28T00:06:33.567Z,70.35
2018-04-28T00:07:04.814Z,70.40
2018-04-28T00:07:36.012Z,70.23
2018-04-28T00:08:07.240Z,70.25
2018-04-28T00:08:38.509Z,70.10
2018-04-28T00:09:09.719Z,70.12
2018-04-28T00:09:40.934Z,70.15
2018-04-28T00:10:12.166Z,70.27
2018-04-28T00:10:43.374Z,70.36
2018-04-28T00:11:14.583Z,70.43
2018-04-28T00:11:45.827Z,70.40
2018-04-28T00:12:17.023Z,70.58
2018-04-28T00:12:48.284Z,70.57
2018-04-28T00:13:19.492Z,70.71
2018-04-28T00:13:50.711Z,70.90
2018-04-28T00:14:21.917Z,71.06
2018-04-28T00:14:53.118Z,71.16
2018-04-28T00:15:24.303Z,71.15
2018-04-28T00:15:55.541Z,71.22
2018-04-28T00:16:26.771Z,71.51
2018-04-28T00:16:58.002Z,71.48
2018-04-28T00:17:29.218Z,71.62
2018-04-28T00:18:00.487Z,71.61
2018-04-28T00:18:31.698Z,71.59
2018-04-28T00:19:02.914Z,71.60
2018-04-28T00:19:34.122Z,71.75
2018-04-28T00:20:05.465Z,71.59
2018-04-28T00:20:36.686Z,71.54
2018-04-28T00:21:07.952Z,71.48
2018-04-28T00:21:39.165Z,71.55
2018-04-28T00:22:10.372Z,71.55
2018-04-28T00:22:41.613Z,71.46
2018-04-28T00:23:12.832Z,71.79
2018-04-28T00:23:44.041Z,71.75
2018-04-28T00:24:15.248Z,71.83
2018-04-28T00:24:46.461Z,71.85
2018-04-28T00:25:17.665Z,71.77
2018-04-28T00:25:48.872Z,71.97
2018-04-28T00:26:20.081Z,71.93
2018-04-28T00:26:51.282Z,71.85
2018-04-28T00:27:22.537Z,71.73
2018-04-28T00:27:53.734Z,71.63
2018-04-28T00:28:24.973Z,71.64
2018-04-28T00:28:56.209Z,71.76
2018-04-28T00:29:27.424Z,71.79
2018-04-28T00:29:58.630Z,71.72
2018-04-28T00:30:29.859Z,71.71
2018-04-28T00:31:01.065Z,71.71
2018-04-28T00:31:32.271Z,71.78
2018-04-28T00:32:03.475Z,71.83
2018-04-28T00:32:34.741Z,71.76
2018-04-28T00:33:05.952Z,71.87
2018-04-28T00:33:37.175Z,71.97
2018-04-28T00:34:08.386Z,71.98
2018-04-28T00:34:39.590Z,71.93
2018-04-28T00:35:10.852Z,71.91
2018-04-28T00:35:42.067Z,71.94
2018-04-28T00:36:13.286Z,71.89
2018-04-28T00:36:44.504Z,71.86
2018-04-28T00:37:15.719Z,71.77
2018-04-28T00:37:46.983Z,71.76
2018-04-28T00:38:18.190Z,71.64
2018-04-28T00:38:49.400Z,71.70
2018-04-28T00:39:20.619Z,71.76
2018-04-28T00:39:51.835Z,71.77
2018-04-28T00:40:23.053Z,71.77
2018-04-28T00:40:54.261Z,71.79
2018-04-28T00:41:25.480Z,72.02
2018-04-28T00:41:56.699Z,72.01
2018-04-28T00:42:28.232Z,71.88
2018-04-28T00:42:59.486Z,71.83
2018-04-28T00:43:30.696Z,72.10
2018-04-28T00:44:01.904Z,72.12
2018-04-28T00:44:33.118Z,72.04
2018-04-28T00:45:04.350Z,72.02
2018-04-28T00:45:35.561Z,72.12
2018-04-28T00:46:06.780Z,72.11
2018-04-28T00:46:37.983Z,72.08
2018-04-28T00:47:09.194Z,72.24
2018-04-28T00:47:40.396Z,72.19
2018-04-28T00:48:11.645Z,72.34
2018-04-28T00:48:42.864Z,72.30
2018-04-28T00:49:14.075Z,72.23
2018-04-28T00:49:45.336Z,72.26
2018-04-28T00:50:16.568Z,72.13
2018-04-28T00:50:47.785Z,72.24
2018-04-28T00:51:19.098Z,72.26
2018-04-28T00:51:50.284Z,72.32
2018-04-28T00:52:21.513Z,72.26
2018-04-28T00:52:52.765Z,72.21
2018-04-28T00:53:23.982Z,72.17
2018-04-28T00:53:55.193Z,72.09
2018-04-28T00:54:26.400Z,72.13
2018-04-28T00:54:57.664Z,72.10
2018-04-28T00:55:28.882Z,72.04
2018-04-28T00:56:00.095Z,72.09
2018-04-28T00:56:31.324Z,71.98
2018-04-28T00:57:02.589Z,71.70
2018-04-28T00:57:33.814Z,71.51
2018-04-28T00:58:05.029Z,71.65
2018-04-28T00:58:36.243Z,71.60
2018-04-28T00:59:07.462Z,71.67
2018-04-28T00:59:38.672Z,71.75
2018-04-28T01:00:09.887Z,71.79
2018-04-28T01:00:41.111Z,72.06
2018-04-28T01:01:12.321Z,72.09
2018-04-28T01:01:43.540Z,72.03
2018-04-28T01:02:14.773Z,71.83
2018-04-28T01:02:46.010Z,71.72
2018-04-28T01:03:17.237Z,71.59
2018-04-28T01:03:48.452Z,71.84
2018-04-28T01:04:19.663Z,71.94
2018-04-28T01:04:50.919Z,72.14
2018-04-28T01:05:22.129Z,72.20
2018-04-28T01:05:53.356Z,72.39
2018-04-28T01:06:24.574Z,72.55
2018-04-28T01:06:55.796Z,72.63
2018-04-28T01:07:27.005Z,72.50
2018-04-28T01:07:58.227Z,72.32
2018-04-28T01:08:29.454Z,72.29
2018-04-28T01:09:00.671Z,72.18
2018-04-28T01:09:31.913Z,72.12
2018-04-28T01:10:03.181Z,72.13
2018-04-28T01:10:34.394Z,72.29
2018-04-28T01:11:05.608Z,72.11
2018-04-28T01:11:36.818Z,72.10
2018-04-28T01:12:08.023Z,72.20
2018-04-28T01:12:39.273Z,72.30
2018-04-28T01:13:10.489Z,72.18
2018-04-28T01:13:41.705Z,72.16
2018-04-28T01:14:12.921Z,72.18
2018-04-28T01:14:44.136Z,72.20
2018-04-28T01:15:15.366Z,72.11
2018-04-28T01:15:46.595Z,72.20
2018-04-28T01:16:17.800Z,72.07
2018-04-28T01:16:49.018Z,71.80
2018-04-28T01:17:20.248Z,71.89
2018-04-28T01:17:51.497Z,71.80
2018-04-28T01:18:22.710Z,71.95
2018-04-28T01:18:53.934Z,71.88
2018-04-28T01:19:25.211Z,71.62
2018-04-28T01:19:56.408Z,71.45
2018-04-28T01:20:29.174Z,71.48
2018-04-28T01:21:00.375Z,71.35
2018-04-28T01:21:31.590Z,71.08
2018-04-28T01:22:02.796Z,71.08
2018-04-28T01:22:34.021Z,71.19
2018-04-28T01:23:05.256Z,71.37
2018-04-28T01:23:36.466Z,71.33
2018-04-28T01:24:07.721Z,71.31
2018-04-28T01:24:38.929Z,71.37
2018-04-28T01:25:10.134Z,71.32
2018-04-28T01:25:41.354Z,71.42
2018-04-28T01:26:12.563Z,71.45
2018-04-28T01:26:43.777Z,71.64
2018-04-28T01:27:14.989Z,71.64
2018-04-28T01:27:46.244Z,71.63
2018-04-28T01:28:17.464Z,71.55
2018-04-28T01:28:48.685Z,71.54
2018-04-28T01:29:19.895Z,71.63
2018-04-28T01:29:51.108Z,71.71
2018-04-28T01:30:22.348Z,71.73
2018-04-28T01:30:53.569Z,71.68
2018-04-28T01:31:24.768Z,71.69
2018-04-28T01:31:56.002Z,71.82
2018-04-28T01:32:27.253Z,72.14
2018-04-28T01:32:58.472Z,72.15
2018-04-28T01:33:29.701Z,72.11
2018-04-28T01:34:00.912Z,72.19
2018-04-28T01:34:32.117Z,72.22
2018-04-28T01:35:03.377Z,72.33
2018-04-28T01:35:34.576Z,72.30
2018-04-28T01:36:05.790Z,72.26
2018-04-28T01:36:36.997Z,72.22
2018-04-28T01:37:08.211Z,72.24
2018-04-28T01:37:39.428Z,72.26
2018-04-28T01:38:10.646Z,72.56
2018-04-28T01:38:41.839Z,72.43
2018-04-28T01:39:13.112Z,72.34
2018-04-28T01:39:44.387Z,72.26
2018-04-28T01:40:15.596Z,72.06
2018-04-28T01:40:46.801Z,71.97
2018-04-28T01:41:18.013Z,71.69
2018-04-28T01:41:49.265Z,71.63
2018-04-28T01:42:20.496Z,71.61
2018-04-28T01:42:51.717Z,71.75
2018-04-28T01:43:22.945Z,71.66
2018-04-28T01:43:54.163Z,71.68
2018-04-28T01:44:25.375Z,71.48
2018-04-28T01:44:56.621Z,71.48
2018-04-28T01:45:27.848Z,71.58
2018-04-28T01:45:59.070Z,71.16
2018-04-28T01:46:30.275Z,71.16
2018-04-28T01:47:01.502Z,71.23
2018-04-28T01:47:32.722Z,71.37
2018-04-28T01:48:04.071Z,71.52
2018-04-28T01:48:35.258Z,71.58
2018-04-28T01:49:06.481Z,71.42
2018-04-28T01:49:37.730Z,71.30
2018-04-28T01:50:08.987Z,71.24
2018-04-28T01:50:40.197Z,71.22
2018-04-28T01:51:11.405Z,71.41
2018-04-28T01:51:42.616Z,71.40
2018-04-28T01:52:13.845Z,71.56
2018-04-28T01:52:45.052Z,71.36
2018-04-28T01:53:16.270Z,71.33
2018-04-28T01:53:47.494Z,71.38
2018-04-28T01:54:18.707Z,71.36
2018-04-28T01:54:49.922Z,71.40
2018-04-28T01:55:21.179Z,71.14
2018-04-28T01:55:52.383Z,71.05
2018-04-28T01:56:23.601Z,70.97
2018-04-28T01:56:54.801Z,71.08
2018-04-28T01:57:26.013Z,71.05
2018-04-28T01:57:57.216Z,71.00
2018-04-28T01:58:28.807Z,71.02
2018-04-28T01:59:00.018Z,71.12
2018-04-28T01:59:31.229Z,71.03
2018-04-28T02:00:02.977Z,71.09
2018-04-28T02:00:34.221Z,71.02
2018-04-28T02:01:05.433Z,70.64
2018-04-28T02:01:36.660Z,70.74
2018-04-28T02:02:07.920Z,70.88
2018-04-28T02:02:39.138Z,70.83
2018-04-28T02:03:10.341Z,70.71
2018-04-28T02:03:41.549Z,70.60
2018-04-28T02:04:12.757Z,70.82
2018-04-28T02:04:43.962Z,70.68
2018-04-28T02:05:15.165Z,70.44
2018-04-28T02:05:46.370Z,70.21
2018-04-28T02:06:17.581Z,70.22
2018-04-28T02:06:48.821Z,69.83
2018-04-28T02:07:20.065Z,69.78
2018-04-28T02:07:51.267Z,69.57
2018-04-28T02:08:22.481Z,69.82
2018-04-28T02:08:53.688Z,69.91
2018-04-28T02:09:24.921Z,70.04
2018-04-28T02:09:56.119Z,69.92
2018-04-28T02:10:27.321Z,69.58
2018-04-28T02:10:58.531Z,69.62
2018-04-28T02:11:29.746Z,69.48
2018-04-28T02:12:01.012Z,69.40
2018-04-28T02:12:32.264Z,69.56
2018-04-28T02:13:03.461Z,69.59
2018-04-28T02:13:34.676Z,69.50
2018-04-28T02:14:05.881Z,69.62
2018-04-28T02:14:37.112Z,69.58
2018-04-28T02:15:08.311Z,69.65
2018-04-28T02:15:39.525Z,69.72
2018-04-28T02:16:10.741Z,69.64
2018-04-28T02:16:41.949Z,69.60
2018-04-28T02:17:13.204Z,69.50
2018-04-28T02:17:44.421Z,69.48
2018-04-28T02:18:15.625Z,69.47
2018-04-28T02:18:46.838Z,69.35
2018-04-28T02:19:18.027Z,69.35
2018-04-28T02:19:49.233Z,69.07
2018-04-28T02:20:20.446Z,69.23
2018-04-28T02:20:51.657Z,69.23
2018-04-28T02:21:22.926Z,69.22
2018-04-28T02:21:54.140Z,69.21
2018-04-28T02:22:25.395Z,69.48
2018-04-28T02:22:56.599Z,69.42
2018-04-28T02:23:27.818Z,69.19
2018-04-28T02:23:59.020Z,69.08
2018-04-28T02:24:30.220Z,68.96
2018-04-28T02:25:01.435Z,68.97
2018-04-28T02:25:32.644Z,68.88
2018-04-28T02:26:03.848Z,68.94
2018-04-28T02:26:35.057Z,68.93
2018-04-28T02:27:06.267Z,68.87
2018-04-28T02:27:37.513Z,68.88
2018-04-28T02:28:08.703Z,69.06
2018-04-28T02:28:39.913Z,68.89
2018-04-28T02:29:11.116Z,68.84
2018-04-28T02:29:42.329Z,68.75
2018-04-28T02:30:13.544Z,68.81
2018-04-28T02:30:44.757Z,68.66
2018-04-28T02:31:15.985Z,68.65
2018-04-28T02:31:47.208Z,68.60
2018-04-28T02:32:18.423Z,68.55
2018-04-28T02:32:49.662Z,68.25
2018-04-28T02:33:20.865Z,68.41
2018-04-28T02:33:52.078Z,68.49
2018-04-28T02:34:23.294Z,68.25
2018-04-28T02:34:54.511Z,68.40
2018-04-28T02:35:25.750Z,68.24
2018-04-28T02:35:57.036Z,68.22
2018-04-28T02:36:28.217Z,68.51
2018-04-28T02:36:59.430Z,68.36
2018-04-28T02:37:30.667Z,67.93
2018-04-28T02:38:01.917Z,68.01
2018-04-28T02:38:33.204Z,68.28
2018-04-28T02:39:04.396Z,68.27
2018-04-28T02:39:35.613Z,68.17
2018-04-28T02:40:06.825Z,68.09
2018-04-28T02:40:38.036Z,68.09
2018-04-28T02:41:09.257Z,68.11
2018-04-28T02:41:40.496Z,68.38
2018-04-28T02:42:11.705Z,68.59
2018-04-28T02:42:42.915Z,68.42
2018-04-28T02:43:14.124Z,68.42
2018-04-28T02:43:45.325Z,68.21
2018-04-28T02:44:16.543Z,68.35
2018-04-28T02:44:47.760Z,68.35
2018-04-28T02:45:18.980Z,68.47
2018-04-28T02:45:50.234Z,68.22
2018-04-28T02:46:21.449Z,67.99
2018-04-28T02:46:52.660Z,68.07
2018-04-28T02:47:23.906Z,68.39
2018-04-28T02:47:55.128Z,68.53
2018-04-28T02:48:26.349Z,68.41
2018-04-28T02:48:57.542Z,68.12
2018-04-28T02:49:28.738Z,68.07
2018-04-28T02:49:59.999Z,68.22
2018-04-28T02:50:31.195Z,68.05
2018-04-28T02:51:02.507Z,68.07
2018-04-28T02:51:33.690Z,68.23
2018-04-28T02:52:04.892Z,67.90
2018-04-28T02:52:36.117Z,67.69
2018-04-28T02:53:07.391Z,67.67
2018-04-28T02:53:38.621Z,67.86
2018-04-28T02:54:09.842Z,67.92
2018-04-28T02:54:41.052Z,68.11
2018-04-28T02:55:12.280Z,67.79
2018-04-28T02:55:43.504Z,67.85
2018-04-28T02:56:14.721Z,67.84
2018-04-28T02:56:45.933Z,67.98
2018-04-28T02:57:17.142Z,67.71
2018-04-28T02:57:48.348Z,67.79
2018-04-28T02:58:19.595Z,67.46
2018-04-28T02:58:50.804Z,67.53
2018-04-28T02:59:22.028Z,67.50
2018-04-28T02:59:53.218Z,67.68
2018-04-28T03:00:24.424Z,67.70
2018-04-28T03:00:55.635Z,67.76
2018-04-28T03:01:26.845Z,67.62
2018-04-28T03:01:58.057Z,67.44
2018-04-28T03:02:29.300Z,67.36
2018-04-28T03:03:00.505Z,67.55
2018-04-28T03:03:31.779Z,67.40
2018-04-28T03:04:02.990Z,67.35
2018-04-28T03:04:34.208Z,67.33
2018-04-28T03:05:05.459Z,67.55
2018-04-28T03:05:36.673Z,67.61
2018-04-28T03:06:07.883Z,67.19
2018-04-28T03:06:39.101Z,67.10
2018-04-28T03:07:10.328Z,67.34
2018-04-28T03:07:41.546Z,66.97
2018-04-28T03:08:12.818Z,66.88
2018-04-28T03:08:44.061Z,67.04
2018-04-28T03:09:15.324Z,67.22
2018-04-28T03:09:46.583Z,67.24
2018-04-28T03:10:17.793Z,67.32
2018-04-28T03:10:49.002Z,67.25
2018-04-28T03:11:20.212Z,67.34
2018-04-28T03:11:51.458Z,67.26
2018-04-28T03:12:22.679Z,67.44
2018-04-28T03:12:53.891Z,67.54
2018-04-28T03:13:25.097Z,67.17
2018-04-28T03:13:56.300Z,67.30
2018-04-28T03:14:27.543Z,67.39
2018-04-28T03:14:58.797Z,67.40
2018-04-28T03:15:30.009Z,67.34
2018-04-28T03:16:01.218Z,67.42
2018-04-28T03:16:32.427Z,67.18
2018-04-28T03:17:03.641Z,66.90
2018-04-28T03:17:34.854Z,66.93
2018-04-28T03:18:06.077Z,66.95
2018-04-28T03:18:37.285Z,66.91
2018-04-28T03:19:08.497Z,67.08
2018-04-28T03:19:39.713Z,66.91
2018-04-28T03:20:10.948Z,66.73
2018-04-28T03:20:42.160Z,66.65
2018-04-28T03:21:13.361Z,66.32
2018-04-28T03:21:44.569Z,66.40
2018-04-28T03:22:15.783Z,66.69
2018-04-28T03:22:47.075Z,66.67
2018-04-28T03:23:18.323Z,66.70
2018-04-28T03:23:49.523Z,66.67
2018-04-28T03:24:20.776Z,66.68
2018-04-28T03:24:51.986Z,66.75
2018-04-28T03:25:23.190Z,67.08
2018-04-28T03:25:54.409Z,66.88
2018-04-28T03:26:25.612Z,66.85
2018-04-28T03:26:56.862Z,66.90
2018-04-28T03:27:28.098Z,66.96
2018-04-28T03:27:59.329Z,67.15
2018-04-28T03:28:30.539Z,67.13
2018-04-28T03:29:01.769Z,67.26
2018-04-28T03:29:33.017Z,67.31
2018-04-28T03:30:04.229Z,67.29
2018-04-28T03:30:35.437Z,67.33
2018-04-28T03:31:06.671Z,67.22
2018-04-28T03:31:37.882Z,67.32
2018-04-28T03:32:09.136Z,67.45
2018-04-28T03:32:40.341Z,67.47
2018-04-28T03:33:11.562Z,67.64
2018-04-28T03:33:42.781Z,67.44
2018-04-28T03:34:13.985Z,67.48
2018-04-28T03:34:45.201Z,67.36
2018-04-28T03:35:16.401Z,67.21
2018-04-28T03:35:47.628Z,67.61
2018-04-28T03:36:18.837Z,67.20
2018-04-28T03:36:50.057Z,67.14
2018-04-28T03:37:21.310Z,67.02
2018-04-28T03:37:52.518Z,66.77
2018-04-28T03:38:23.742Z,66.95
2018-04-28T03:38:54.952Z,67.13
2018-04-28T03:39:26.160Z,67.18
2018-04-28T03:39:57.369Z,66.75
2018-04-28T03:40:28.577Z,66.61
2018-04-28T03:40:59.784Z,66.72
2018-04-28T03:41:31.009Z,66.48
2018-04-28T03:42:02.224Z,66.17
2018-04-28T03:42:33.504Z,66.06
2018-04-28T03:43:04.721Z,65.78
2018-04-28T03:43:36.018Z,66.06
2018-04-28T03:44:07.240Z,66.27
2018-04-28T03:44:38.463Z,66.09
2018-04-28T03:45:09.669Z,66.32
2018-04-28T03:45:40.861Z,66.62
2018-04-28T03:46:12.070Z,66.63
2018-04-28T03:46:43.293Z,66.56
2018-04-28T03:47:14.492Z,66.66
2018-04-28T03:47:45.713Z,66.61
2018-04-28T03:48:16.941Z,66.34
2018-04-28T03:48:48.185Z,66.19
2018-04-28T03:49:19.398Z,66.10
2018-04-28T03:49:50.601Z,65.82
2018-04-28T03:50:21.813Z,65.55
2018-04-28T03:50:53.021Z,65.34
2018-04-28T03:51:24.234Z,65.48
2018-04-28T03:51:55.463Z,65.63
2018-04-28T03:52:26.660Z,65.76
2018-04-28T03:52:57.902Z,65.95
2018-04-28T03:53:29.171Z,66.49
2018-04-28T03:54:00.428Z,66.16
2018-04-28T03:54:31.637Z,65.90
2018-04-28T03:55:02.852Z,65.91
2018-04-28T03:55:34.058Z,65.91
2018-04-28T03:56:05.290Z,65.87
2018-04-28T03:56:36.505Z,65.93
2018-04-28T03:57:07.727Z,66.09
2018-04-28T03:57:38.945Z,65.95
2018-04-28T03:58:10.152Z,65.89
2018-04-28T03:58:41.363Z,66.32
2018-04-28T03:59:12.615Z,66.15
2018-04-28T03:59:43.841Z,66.09
2018-04-28T04:00:15.057Z,66.23
2018-04-28T04:00:46.281Z,66.22
2018-04-28T04:01:17.489Z,66.32
2018-04-28T04:01:48.697Z,66.61
2018-04-28T04:02:19.909Z,66.76
2018-04-28T04:02:51.090Z,66.81
2018-04-28T04:03:22.292Z,67.06
2018-04-28T04:03:53.520Z,66.95
2018-04-28T04:04:24.834Z,66.83
2018-04-28T04:04:56.042Z,66.94
2018-04-28T04:05:27.249Z,66.98
2018-04-28T04:05:58.457Z,66.89
2018-04-28T04:06:30.243Z,66.81
2018-04-28T04:07:01.508Z,66.85
2018-04-28T04:07:32.713Z,66.62
2018-04-28T04:08:03.931Z,66.45
2018-04-28T04:08:35.147Z,66.37
2018-04-28T04:09:06.362Z,66.45
2018-04-28T04:09:37.621Z,66.63
2018-04-28T04:10:08.832Z,66.45
2018-04-28T04:10:40.037Z,66.40
2018-04-28T04:11:11.255Z,66.12
2018-04-28T04:11:42.480Z,65.87
2018-04-28T04:12:13.688Z,65.83
2018-04-28T04:12:44.889Z,65.89
2018-04-28T04:13:16.144Z,65.91
2018-04-28T04:13:47.354Z,65.97
2018-04-28T04:14:18.566Z,66.02
2018-04-28T04:14:49.812Z,65.96
2018-04-28T04:15:21.033Z,65.90
2018-04-28T04:15:52.256Z,65.96
2018-04-28T04:16:23.465Z,65.93
2018-04-28T04:16:54.669Z,65.96
2018-04-28T04:17:25.880Z,66.00
2018-04-28T04:17:57.092Z,65.97
2018-04-28T04:18:28.300Z,65.96
2018-04-28T04:18:59.515Z,65.88
2018-04-28T04:19:30.785Z,65.86
2018-04-28T04:20:02.129Z,65.76
2018-04-28T04:20:33.358Z,65.70
2018-04-28T04:21:04.636Z,65.80
2018-04-28T04:21:35.834Z,65.88
2018-04-28T04:22:07.078Z,65.88
2018-04-28T04:22:38.303Z,65.82
2018-04-28T04:23:09.512Z,66.09
2018-04-28T04:23:40.748Z,66.03
2018-04-28T04:24:11.950Z,66.24
2018-04-28T04:24:43.175Z,66.00
2018-04-28T04:25:14.395Z,65.77
2018-04-28T04:25:45.602Z,65.61
2018-04-28T04:26:16.848Z,65.66
2018-04-28T04:26:48.061Z,65.20
2018-04-28T04:27:19.269Z,65.18
2018-04-28T04:27:50.489Z,65.33
2018-04-28T04:28:21.741Z,65.43
2018-04-28T04:28:52.961Z,65.38
2018-04-28T04:29:24.173Z,65.43
2018-04-28T04:29:55.394Z,65.56
2018-04-28T04:30:26.604Z,65.59
2018-04-28T04:30:57.816Z,65.57
2018-04-28T04:31:29.025Z,65.37
2018-04-28T04:32:00.371Z,65.45
2018-04-28T04:32:31.536Z,65.49
2018-04-28T04:33:02.751Z,65.67
2018-04-28T04:33:33.989Z,65.81
2018-04-28T04:34:05.206Z,65.90
2018-04-28T04:34:36.418Z,65.67
2018-04-28T04:35:07.617Z,65.62
2018-04-28T04:35:38.835Z,65.36
2018-04-28T04:36:10.041Z,65.26
2018-04-28T04:36:41.245Z,65.16
2018-04-28T04:37:12.491Z,65.09
2018-04-28T04:37:43.719Z,64.89
2018-04-28T04:38:14.956Z,64.95
2018-04-28T04:38:46.168Z,64.75
2018-04-28T04:39:17.386Z,64.74
2018-04-28T04:39:48.608Z,64.54
2018-04-28T04:40:19.824Z,64.61
2018-04-28T04:40:51.033Z,64.60
2018-04-28T04:41:22.244Z,64.60
2018-04-28T04:41:53.497Z,64.67
2018-04-28T04:42:24.717Z,64.59
2018-04-28T04:42:56.041Z,64.59
2018-04-28T04:43:27.245Z,64.49
2018-04-28T04:43:58.453Z,64.50
2018-04-28T04:44:29.679Z,64.54
2018-04-28T04:45:00.888Z,64.48
2018-04-28T04:45:32.097Z,64.44
2018-04-28T04:46:03.306Z,64.44
2018-04-28T04:46:34.529Z,64.38
2018-04-28T04:47:05.741Z,64.34
2018-04-28T04:47:36.963Z,64.18
2018-04-28T04:48:08.228Z,64.17
2018-04-28T04:48:39.442Z,64.24
2018-04-28T04:49:10.666Z,64.22
2018-04-28T04:49:41.886Z,64.19
2018-04-28T04:50:13.089Z,63.90
2018-04-28T04:50:44.298Z,64.00
2018-04-28T04:51:15.522Z,63.88
2018-04-28T04:51:46.734Z,63.98
2018-04-28T04:52:17.941Z,63.76
2018-04-28T04:52:49.153Z,63.95
2018-04-28T04:53:21.047Z,63.76
2018-04-28T04:53:52.270Z,63.94
2018-04-28T04:54:23.485Z,63.80
2018-04-28T04:54:54.688Z,63.59
2018-04-28T04:55:25.911Z,63.47
2018-04-28T04:55:57.186Z,63.23
2018-04-28T04:56:28.431Z,63.12
2018-04-28T04:56:59.658Z,63.04
2018-04-28T04:57:30.889Z,63.13
2018-04-28T04:58:02.087Z,63.21
2018-04-28T04:58:33.299Z,63.33
2018-04-28T04:59:04.523Z,63.49
2018-04-28T04:59:35.740Z,63.73
2018-04-28T05:00:06.950Z,64.21
2018-04-28T05:00:38.185Z,63.73
2018-04-28T05:01:09.437Z,63.70
2018-04-28T05:01:40.649Z,63.81
2018-04-28T05:02:11.893Z,63.89
2018-04-28T05:02:43.104Z,63.71
2018-04-28T05:03:14.309Z,63.76
2018-04-28T05:03:45.557Z,63.71
2018-04-28T05:04:16.765Z,63.28
2018-04-28T05:04:47.979Z,63.25
2018-04-28T05:05:19.189Z,63.22
2018-04-28T05:05:50.402Z,63.28
2018-04-28T05:06:21.653Z,63.49
2018-04-28T05:06:52.923Z,63.62
2018-04-28T05:07:24.151Z,63.64
2018-04-28T05:07:55.364Z,63.64
2018-04-28T05:08:26.598Z,63.63
2018-04-28T05:08:57.832Z,63.48
2018-04-28T05:09:29.046Z,63.57
2018-04-28T05:10:00.270Z,63.58
2018-04-28T05:10:31.532Z,63.32
2018-04-28T05:11:02.754Z,63.13
2018-04-28T05:11:34.001Z,63.28
2018-04-28T05:12:05.224Z,62.97
2018-04-28T05:12:36.433Z,63.06
2018-04-28T05:13:07.674Z,63.13
2018-04-28T05:13:38.883Z,63.15
2018-04-28T05:14:10.088Z,63.18
2018-04-28T05:14:41.293Z,63.20
2018-04-28T05:15:12.503Z,63.30
2018-04-28T05:15:43.769Z,63.27
2018-04-28T05:16:14.988Z,63.40
2018-04-28T05:16:46.207Z,62.98
2018-04-28T05:17:17.413Z,62.76
2018-04-28T05:17:48.646Z,62.88
2018-04-28T05:18:19.862Z,62.93
2018-04-28T05:18:51.068Z,62.91
2018-04-28T05:19:22.284Z,62.91
2018-04-28T05:19:53.492Z,62.86
2018-04-28T05:20:25.338Z,62.88
2018-04-28T05:20:56.597Z,62.98
2018-04-28T05:21:27.808Z,63.14
2018-04-28T05:21:59.085Z,63.06
2018-04-28T05:22:30.304Z,62.99
2018-04-28T05:23:01.514Z,63.05
2018-04-28T05:23:32.737Z,63.08
2018-04-28T05:24:03.956Z,63.06
2018-04-28T05:24:35.170Z,63.05
2018-04-28T05:25:06.373Z,62.91
2018-04-28T05:25:37.576Z,62.73
2018-04-28T05:26:08.824Z,62.51
2018-04-28T05:26:40.039Z,62.23
2018-04-28T05:27:11.287Z,61.94
2018-04-28T05:27:42.539Z,61.79
2018-04-28T05:28:13.760Z,61.80
2018-04-28T05:28:44.981Z,61.89
2018-04-28T05:29:16.229Z,61.97
2018-04-28T05:29:47.479Z,61.84
2018-04-28T05:30:18.724Z,61.89
2018-04-28T05:30:49.950Z,61.92
2018-04-28T05:31:21.185Z,61.98
2018-04-28T05:31:52.413Z,61.49
2018-04-28T05:32:23.633Z,61.33
2018-04-28T05:32:54.912Z,61.40
2018-04-28T05:33:26.192Z,61.43
2018-04-28T05:33:57.412Z,61.46
2018-04-28T05:34:28.665Z,61.64
2018-04-28T05:34:59.885Z,61.85
2018-04-28T05:35:31.129Z,61.88
2018-04-28T05:36:02.435Z,61.96
2018-04-28T05:36:33.614Z,61.93
2018-04-28T05:37:04.832Z,61.92
2018-04-28T05:37:36.102Z,61.76
2018-04-28T05:38:07.418Z,61.41
2018-04-28T05:38:38.640Z,61.73
2018-04-28T05:39:09.922Z,62.07
2018-04-28T05:39:41.190Z,61.98
2018-04-28T05:40:12.428Z,61.94
2018-04-28T05:40:43.649Z,61.83
2018-04-28T05:41:14.857Z,61.57
2018-04-28T05:41:46.082Z,61.57
2018-04-28T05:42:17.311Z,61.48
2018-04-28T05:42:48.533Z,61.18
2018-04-28T05:43:19.826Z,60.84
2018-04-28T05:43:51.062Z,60.82
2018-04-28T05:44:22.276Z,60.89
2018-04-28T05:44:53.532Z,60.80
2018-04-28T05:45:24.741Z,60.76
2018-04-28T05:45:56.000Z,60.60
2018-04-28T05:46:27.220Z,60.67
2018-04-28T05:46:58.442Z,60.70
2018-04-28T05:47:29.657Z,60.59
2018-04-28T05:48:00.871Z,60.53
2018-04-28T05:48:32.081Z,60.55
2018-04-28T05:49:03.307Z,60.59
2018-04-28T05:49:34.530Z,60.64
2018-04-28T05:50:05.786Z,60.70
2018-04-28T05:50:36.999Z,60.84
2018-04-28T05:51:08.205Z,60.63
2018-04-28T05:51:39.415Z,60.27
2018-04-28T05:52:10.633Z,60.36
2018-04-28T05:52:41.876Z,60.51
2018-04-28T05:53:13.105Z,60.66
2018-04-28T05:53:44.338Z,61.01
2018-04-28T05:54:15.558Z,61.21
2018-04-28T05:54:46.777Z,61.27
2018-04-28T05:55:17.984Z,61.25
2018-04-28T05:55:49.198Z,61.14
2018-04-28T05:56:20.463Z,61.03
2018-04-28T05:56:51.705Z,60.98
2018-04-28T05:57:22.904Z,60.71
2018-04-28T05:57:54.174Z,60.40
2018-04-28T05:58:25.420Z,60.05
2018-04-28T05:58:56.692Z,59.85
2018-04-28T05:59:27.930Z,59.84
2018-04-28T05:59:59.158Z,59.94
2018-04-28T06:00:30.381Z,60.20
2018-04-28T06:01:01.585Z,60.37
2018-04-28T06:01:32.797Z,60.55
2018-04-28T06:02:04.057Z,60.72
2018-04-28T06:02:35.265Z,60.56
2018-04-28T06:03:06.489Z,60.80
2018-04-28T06:03:37.707Z,60.48
2018-04-28T06:04:08.944Z,60.49
2018-04-28T06:04:41.877Z,60.42
2018-04-28T06:05:13.868Z,60.52
2018-04-28T06:05:45.099Z,60.63
2018-04-28T06:06:16.308Z,60.82
2018-04-28T06:06:47.531Z,60.73
2018-04-28T06:07:18.828Z,60.68
2018-04-28T06:07:50.044Z,60.89
2018-04-28T06:08:21.264Z,61.02
2018-04-28T06:08:52.470Z,60.95
2018-04-28T06:09:23.687Z,60.71
2018-04-28T06:09:54.879Z,60.54
2018-04-28T06:10:26.090Z,60.40
2018-04-28T06:10:57.333Z,60.29
2018-04-28T06:11:28.593Z,60.10
2018-04-28T06:11:59.817Z,59.92
2018-04-28T06:12:31.141Z,59.63
2018-04-28T06:13:02.353Z,59.78
2018-04-28T06:13:33.590Z,59.80
2018-04-28T06:14:04.817Z,59.72
2018-04-28T06:14:36.082Z,59.59
2018-04-28T06:15:09.043Z,59.34
2018-04-28T06:15:41.247Z,59.21
2018-04-28T06:16:12.509Z,59.22
2018-04-28T06:16:43.766Z,59.06
2018-04-28T06:17:14.984Z,59.11
2018-04-28T06:17:46.203Z,59.03
2018-04-28T06:18:17.409Z,59.10
2018-04-28T06:18:48.691Z,59.07
2018-04-28T06:19:19.896Z,59.16
2018-04-28T06:19:51.107Z,59.33
2018-04-28T06:20:22.356Z,59.37
2018-04-28T06:20:53.614Z,59.30
2018-04-28T06:21:24.833Z,58.86
2018-04-28T06:21:56.058Z,58.89
2018-04-28T06:22:27.283Z,59.17
2018-04-28T06:22:58.569Z,59.27
2018-04-28T06:23:29.840Z,59.37
2018-04-28T06:24:01.089Z,59.16
2018-04-28T06:24:32.316Z,59.06
2018-04-28T06:25:03.561Z,58.96
2018-04-28T06:25:34.768Z,58.56
2018-04-28T06:26:06.167Z,58.17
2018-04-28T06:26:37.219Z,58.07
2018-04-28T06:27:08.432Z,58.02
2018-04-28T06:27:39.645Z,58.18
2018-04-28T06:28:10.903Z,58.16
2018-04-28T06:28:42.135Z,58.28
2018-04-28T06:29:13.328Z,58.41
2018-04-28T06:29:44.548Z,58.32
2018-04-28T06:30:15.817Z,58.61
2018-04-28T06:30:47.059Z,58.30
2018-04-28T06:31:18.275Z,58.53
2018-04-28T06:31:49.513Z,58.79
2018-04-28T06:32:20.766Z,58.85
2018-04-28T06:32:51.989Z,58.71
2018-04-28T06:33:23.198Z,58.27
2018-04-28T06:33:54.408Z,58.29
2018-04-28T06:34:25.746Z,58.23
2018-04-28T06:34:56.953Z,58.12
2018-04-28T06:35:29.076Z,57.82
2018-04-28T06:36:00.295Z,57.93
2018-04-28T06:36:31.540Z,57.89
2018-04-28T06:37:02.746Z,57.75
2018-04-28T06:37:33.953Z,57.29
2018-04-28T06:38:05.188Z,57.52
2018-04-28T06:38:36.416Z,57.62
2018-04-28T06:39:07.636Z,57.69
2018-04-28T06:39:38.901Z,58.32
2018-04-28T06:40:10.113Z,58.47
2018-04-28T06:40:41.346Z,58.35
2018-04-28T06:41:12.689Z,58.24
2018-04-28T06:41:43.860Z,58.30
2018-04-28T06:42:15.078Z,58.48